createdAt,value
2018-11-02T00:02:27.863Z,3.60
2018-11-02T00:04:57.050Z,3.60
2018-11-02T00:07:26.239Z,3.90
2018-11-02T00:09:55.379Z,4.03
2018-11-02T00:12:24.585Z,3.93
2018-11-02T00:14:53.642Z,4.63
2018-11-02T00:17:22.750Z,3.70
2018-11-02T00:19:51.876Z,4.50
2018-11-02T00:22:21.009Z,3.70
2018-11-02T00:24:50.169Z,3.97
2018-11-02T00:27:19.273Z,3.30
2018-11-02T00:29:48.412Z,3.57
2018-11-02T00:32:17.538Z,3.20
2018-11-02T00:34:46.695Z,2.77
2018-11-02T00:37:15.888Z,3.13
2018-11-02T00:39:45.005Z,2.93
2018-11-02T00:42:14.119Z,3.07
2018-11-02T00:44:43.248Z,2.80
2018-11-02T00:47:12.371Z,2.80
2018-11-02T00:49:41.530Z,3.07
2018-11-02T00:52:10.633Z,2.80
2018-11-02T00:54:39.762Z,2.57
2018-11-02T00:57:08.868Z,3.27
2018-11-02T00:59:37.990Z,3.70
2018-11-02T01:02:07.457Z,3.30
2018-11-02T01:04:36.581Z,3.63
2018-11-02T01:07:06.465Z,4.13
2018-11-02T01:09:35.782Z,4.50
2018-11-02T01:12:05.192Z,3.97
2018-11-02T01:14:34.306Z,5.07
2018-11-02T01:17:03.418Z,4.73
2018-11-02T01:19:33.092Z,5.13
2018-11-02T01:22:04.315Z,4.33
2018-11-02T01:24:33.491Z,4.93
2018-11-02T01:27:02.587Z,5.13
2018-11-02T01:29:31.679Z,5.30
2018-11-02T01:32:00.790Z,5.30
2018-11-02T01:34:29.926Z,6.20
2018-11-02T01:36:58.999Z,6.00
2018-11-02T01:39:28.073Z,5.83
2018-11-02T01:41:57.196Z,7.53
2018-11-02T01:44:26.284Z,6.97
2018-11-02T01:46:55.426Z,7.20
2018-11-02T01:49:24.571Z,6.77
2018-11-02T01:51:53.709Z,7.23
2018-11-02T01:54:22.800Z,7.20
2018-11-02T01:56:51.919Z,6.57
2018-11-02T01:59:21.217Z,8.10
2018-11-02T02:01:50.386Z,8.00
2018-11-02T02:04:19.597Z,7.33
2018-11-02T02:06:48.729Z,7.40
2018-11-02T02:09:17.850Z,7.90
2018-11-02T02:11:46.956Z,8.73
2018-11-02T02:14:16.086Z,8.73
2018-11-02T02:16:45.163Z,7.97
2018-11-02T02:19:14.340Z,7.70
2018-11-02T02:21:43.476Z,8.30
2018-11-02T02:24:12.638Z,8.53
2018-11-02T02:26:41.738Z,8.30
2018-11-02T02:29:11.199Z,7.80
2018-11-02T02:31:40.308Z,9.60
2018-11-02T02:34:09.624Z,10.40
2018-11-02T02:36:38.762Z,9.83
2018-11-02T02:39:09.594Z,11.37
2018-11-02T02:41:39.161Z,10.37
2018-11-02T02:44:08.559Z,8.63
2018-11-02T02:46:37.688Z,10.07
2018-11-02T02:49:07.592Z,10.23
2018-11-02T02:51:36.699Z,10.17
2018-11-02T02:54:05.984Z,9.80
2018-11-02T02:56:35.082Z,9.70
2018-11-02T02:59:04.265Z,9.90
2018-11-02T03:01:33.419Z,9.80
2018-11-02T03:04:02.534Z,9.13
2018-11-02T03:06:31.757Z,10.07
2018-11-02T03:09:00.929Z,10.40
2018-11-02T03:11:30.129Z,8.90
2018-11-02T03:13:59.276Z,10.73
2018-11-02T03:16:28.466Z,9.33
2018-11-02T03:18:57.701Z,9.00
2018-11-02T03:21:27.097Z,9.70
2018-11-02T03:23:56.235Z,9.33
2018-11-02T03:26:25.347Z,9.27
2018-11-02T03:28:54.446Z,9.23
2018-11-02T03:31:23.540Z,9.00
2018-11-02T03:33:52.693Z,8.90
2018-11-02T03:36:21.837Z,8.63
2018-11-02T03:38:50.931Z,8.10
2018-11-02T03:41:20.071Z,8.03
2018-11-02T03:43:49.516Z,8.83
2018-11-02T03:46:18.615Z,8.50
2018-11-02T03:48:47.785Z,7.40
2018-11-02T03:51:16.922Z,7.30
2018-11-02T03:53:46.049Z,7.03
2018-11-02T03:56:15.517Z,8.40
2018-11-02T03:58:44.634Z,8.10
2018-11-02T04:01:13.806Z,8.27
2018-11-02T04:03:42.920Z,7.73
2018-11-02T04:06:12.055Z,8.00
2018-11-02T04:08:41.165Z,7.73
2018-11-02T04:11:10.245Z,7.93
2018-11-02T04:13:39.355Z,9.13
2018-11-02T04:16:08.487Z,8.20
2018-11-02T04:18:37.613Z,7.73
2018-11-02T04:21:06.741Z,7.77
2018-11-02T04:23:35.848Z,8.20
2018-11-02T04:26:06.081Z,8.10
2018-11-02T04:28:35.184Z,7.93
2018-11-02T04:31:04.500Z,8.30
2018-11-02T04:33:33.581Z,9.47
2018-11-02T04:36:02.773Z,9.93
2018-11-02T04:38:31.898Z,9.30
2018-11-02T04:41:01.024Z,8.40
2018-11-02T04:43:30.124Z,9.90
2018-11-02T04:45:59.263Z,9.93
2018-11-02T04:48:28.419Z,11.80
2018-11-02T04:50:57.618Z,9.77
2018-11-02T04:53:26.767Z,10.40
2018-11-02T04:55:55.951Z,10.87
2018-11-02T04:58:25.055Z,10.53
2018-11-02T05:00:54.166Z,10.40
2018-11-02T05:03:23.309Z,11.00
2018-11-02T05:05:52.433Z,10.27
2018-11-02T05:08:21.533Z,9.57
2018-11-02T05:10:50.631Z,10.00
2018-11-02T05:13:19.760Z,11.57
2018-11-02T05:15:48.898Z,9.40
2018-11-02T05:18:18.062Z,11.63
2018-11-02T05:20:47.217Z,10.97
2018-11-02T05:23:16.325Z,10.50
2018-11-02T05:25:45.496Z,10.60
2018-11-02T05:28:14.614Z,10.37
2018-11-02T05:30:43.743Z,10.07
2018-11-02T05:33:12.998Z,10.57
2018-11-02T05:35:42.119Z,11.00
2018-11-02T05:38:11.247Z,10.20
2018-11-02T05:40:40.389Z,10.00
2018-11-02T05:43:09.522Z,10.50
2018-11-02T05:45:38.680Z,12.17
2018-11-02T05:48:07.856Z,10.30
2018-11-02T05:50:37.034Z,10.13
2018-11-02T05:53:06.459Z,8.97
2018-11-02T05:55:35.582Z,11.17
2018-11-02T05:58:04.724Z,10.60
2018-11-02T06:00:33.861Z,9.53
2018-11-02T06:03:03.013Z,9.63
2018-11-02T06:05:32.151Z,11.40
2018-11-02T06:08:01.346Z,10.93
2018-11-02T06:10:30.459Z,10.90
2018-11-02T06:12:59.578Z,11.30
2018-11-02T06:15:28.731Z,11.80
2018-11-02T06:17:57.840Z,11.23
2018-11-02T06:20:26.967Z,12.07
2018-11-02T06:22:56.163Z,10.93
2018-11-02T06:25:25.328Z,10.00
2018-11-02T06:27:54.488Z,10.87
2018-11-02T06:30:23.654Z,11.00
2018-11-02T06:32:53.458Z,10.47
2018-11-02T06:35:22.513Z,10.43
2018-11-02T06:37:52.654Z,10.20
2018-11-02T06:40:21.808Z,10.03
2018-11-02T06:42:50.963Z,9.40
2018-11-02T06:45:20.205Z,10.67
2018-11-02T06:47:49.266Z,9.47
2018-11-02T06:50:18.394Z,9.27
2018-11-02T06:52:47.532Z,10.10
2018-11-02T06:55:16.655Z,9.80
2018-11-02T06:57:45.784Z,10.70
2018-11-02T07:00:14.966Z,10.47
2018-11-02T07:02:44.104Z,9.73
2018-11-02T07:05:13.401Z,10.30
2018-11-02T07:07:45.738Z,9.80
2018-11-02T07:10:14.768Z,10.30
2018-11-02T07:12:43.928Z,10.77
2018-11-02T07:15:13.073Z,10.27
2018-11-02T07:17:42.263Z,10.80
2018-11-02T07:20:11.392Z,10.60
2018-11-02T07:22:40.575Z,10.63
2018-11-02T07:25:09.794Z,9.27
2018-11-02T07:27:38.831Z,9.23
2018-11-02T07:30:09.861Z,7.90
2018-11-02T07:32:39.330Z,8.77
2018-11-02T07:35:09.137Z,8.43
2018-11-02T07:37:38.309Z,9.00
2018-11-02T07:40:09.641Z,8.63
2018-11-02T07:42:38.758Z,8.27
2018-11-02T07:45:08.798Z,7.73
2018-11-02T07:47:38.031Z,7.23
2018-11-02T07:50:09.995Z,8.13
2018-11-02T07:52:39.136Z,7.40
2018-11-02T07:55:10.804Z,6.73
2018-11-02T07:57:40.225Z,6.17
2018-11-02T08:00:11.879Z,6.20
2018-11-02T08:02:42.801Z,5.90
2018-11-02T08:05:12.355Z,5.97
2018-11-02T08:07:41.480Z,7.27
2018-11-02T08:10:10.796Z,5.30
2018-11-02T08:12:39.929Z,6.40
2018-11-02T08:15:11.215Z,5.70
2018-11-02T08:17:41.300Z,6.17
2018-11-02T08:20:11.904Z,6.30
2018-11-02T08:22:41.207Z,6.90
2018-11-02T08:25:11.304Z,5.57
2018-11-02T08:27:40.737Z,6.37
2018-11-02T08:30:10.952Z,5.70
2018-11-02T08:32:40.113Z,7.03
2018-11-02T08:35:11.784Z,6.90
2018-11-02T08:37:41.312Z,7.43
2018-11-02T08:40:11.836Z,6.63
2018-11-02T08:42:41.161Z,5.67
2018-11-02T08:45:11.037Z,5.60
2018-11-02T08:47:40.171Z,4.73
2018-11-02T08:50:10.661Z,4.10
2018-11-02T08:52:39.775Z,4.20
2018-11-02T08:55:08.900Z,3.57
2018-11-02T08:57:38.635Z,3.00
2018-11-02T09:00:10.351Z,2.80
2018-11-02T09:02:39.515Z,2.50
2018-11-02T09:05:08.895Z,2.93
2018-11-02T09:07:38.451Z,2.90
2018-11-02T09:10:10.155Z,2.30
2018-11-02T09:12:39.332Z,2.90
2018-11-02T09:15:08.520Z,2.40
2018-11-02T09:17:37.639Z,3.00
2018-11-02T09:20:06.936Z,2.10
2018-11-02T09:22:36.117Z,2.20
2018-11-02T09:25:06.730Z,2.93
2018-11-02T09:27:35.983Z,1.80
2018-11-02T09:30:07.957Z,1.77
2018-11-02T09:32:37.084Z,2.13
2018-11-02T09:35:07.027Z,1.90
2018-11-02T09:37:36.172Z,2.20
2018-11-02T09:40:07.229Z,2.00
2018-11-02T09:42:36.649Z,2.20
2018-11-02T09:45:07.862Z,2.37
2018-11-02T09:47:37.003Z,2.60
2018-11-02T09:50:07.000Z,2.20
2018-11-02T09:52:36.998Z,2.73
2018-11-02T09:55:07.368Z,1.80
2018-11-02T09:57:36.571Z,2.30
2018-11-02T10:00:06.523Z,1.93
2018-11-02T10:02:35.663Z,2.10
2018-11-02T10:05:05.534Z,1.80
2018-11-02T10:07:34.671Z,2.00
2018-11-02T10:10:03.940Z,1.70
2018-11-02T10:12:33.083Z,1.93
2018-11-02T10:15:02.223Z,1.47
2018-11-02T10:17:31.419Z,1.53
2018-11-02T10:20:00.727Z,1.70
2018-11-02T10:22:29.873Z,1.73
2018-11-02T10:24:59.061Z,1.67
2018-11-02T10:27:28.183Z,1.97
2018-11-02T10:29:57.340Z,2.07
2018-11-02T10:32:26.501Z,1.70
2018-11-02T10:34:55.633Z,1.67
2018-11-02T10:37:24.752Z,2.60
2018-11-02T10:39:53.954Z,2.07
2018-11-02T10:42:23.082Z,1.60
2018-11-02T10:44:52.327Z,1.50
2018-11-02T10:47:21.488Z,1.73
2018-11-02T10:49:50.607Z,1.87
2018-11-02T10:52:19.745Z,2.10
2018-11-02T10:54:48.930Z,1.90
2018-11-02T10:57:18.165Z,1.90
2018-11-02T10:59:47.317Z,3.40
2018-11-02T11:02:21.835Z,2.97
2018-11-02T11:04:50.981Z,1.80
2018-11-02T11:07:20.175Z,1.90
2018-11-02T11:09:49.356Z,1.60
2018-11-02T11:12:18.724Z,1.80
2018-11-02T11:14:47.628Z,2.30
2018-11-02T11:17:16.782Z,2.20
2018-11-02T11:19:45.900Z,2.20
2018-11-02T11:22:15.042Z,1.93
2018-11-02T11:24:44.201Z,1.90
2018-11-02T11:27:13.344Z,2.93
2018-11-02T11:29:42.534Z,2.60
2018-11-02T11:32:11.649Z,2.10
2018-11-02T11:34:40.797Z,2.60
2018-11-02T11:37:09.916Z,2.37
2018-11-02T11:39:39.198Z,2.37
2018-11-02T11:42:08.274Z,2.40
2018-11-02T11:44:37.408Z,2.23
2018-11-02T11:47:06.547Z,2.10
2018-11-02T11:49:35.667Z,1.87
2018-11-02T11:52:05.344Z,1.37
2018-11-02T11:54:34.479Z,1.60
2018-11-02T11:57:03.594Z,1.60
2018-11-02T11:59:32.719Z,1.90
2018-11-02T12:02:01.865Z,1.53
2018-11-02T12:04:31.055Z,1.60
2018-11-02T12:07:00.117Z,1.17
2018-11-02T12:09:29.249Z,1.83
2018-11-02T12:11:58.474Z,1.73
2018-11-02T12:14:27.588Z,1.07
2018-11-02T12:16:56.718Z,1.73
2018-11-02T12:19:25.872Z,1.73
2018-11-02T12:21:55.071Z,1.77
2018-11-02T12:24:24.131Z,1.50
2018-11-02T12:26:53.271Z,1.90
2018-11-02T12:29:22.397Z,1.57
2018-11-02T12:31:51.510Z,1.90
2018-11-02T12:34:20.607Z,1.87
2018-11-02T12:36:49.802Z,1.50
2018-11-02T12:39:19.007Z,1.73
2018-11-02T12:41:48.136Z,1.70
2018-11-02T12:44:17.264Z,1.70
2018-11-02T12:46:46.392Z,1.70
2018-11-02T12:49:15.954Z,1.67
2018-11-02T12:51:44.756Z,1.73
2018-11-02T12:54:13.876Z,1.47
2018-11-02T12:56:43.003Z,1.70
2018-11-02T12:59:12.127Z,1.30
2018-11-02T13:01:41.345Z,1.40
2018-11-02T13:04:10.452Z,1.40
2018-11-02T13:06:39.563Z,1.60
2018-11-02T13:09:08.726Z,1.40
2018-11-02T13:11:37.855Z,1.70
2018-11-02T13:14:13.684Z,1.60
2018-11-02T13:16:42.800Z,2.10
2018-11-02T13:19:11.933Z,1.20
2018-11-02T13:21:41.148Z,1.30
2018-11-02T13:24:10.221Z,1.40
2018-11-02T13:26:39.358Z,1.30
2018-11-02T13:29:08.466Z,1.47
2018-11-02T13:31:37.625Z,1.40
2018-11-02T13:34:06.735Z,1.10
2018-11-02T13:36:35.994Z,1.20
2018-11-02T13:39:08.219Z,1.27
2018-11-02T13:41:37.378Z,1.00
2018-11-02T13:44:07.063Z,0.80
2018-11-02T13:46:36.195Z,0.60
2018-11-02T13:49:06.047Z,0.70
2018-11-02T13:51:35.202Z,0.77
2018-11-02T13:54:04.332Z,0.90
2018-11-02T13:56:33.479Z,0.70
2018-11-02T13:59:02.653Z,1.30
2018-11-02T14:01:31.741Z,1.70
2018-11-02T14:04:00.891Z,2.77
2018-11-02T14:06:30.124Z,1.00
2018-11-02T14:08:59.281Z,1.37
2018-11-02T14:11:28.527Z,1.33
2018-11-02T14:13:57.634Z,1.20
2018-11-02T14:16:27.470Z,1.20
2018-11-02T14:18:56.751Z,1.00
2018-11-02T14:21:25.971Z,1.40
2018-11-02T14:23:55.236Z,1.00
2018-11-02T14:26:24.367Z,1.30
2018-11-02T14:28:53.516Z,1.50
2018-11-02T14:31:22.797Z,1.17
2018-11-02T14:33:51.912Z,1.43
2018-11-02T14:36:21.095Z,1.40
2018-11-02T14:38:50.259Z,1.53
2018-11-02T14:41:19.468Z,1.70
2018-11-02T14:43:48.518Z,1.60
2018-11-02T14:46:17.630Z,1.63
2018-11-02T14:48:46.916Z,1.80
2018-11-02T14:51:16.049Z,1.50
2018-11-02T14:53:45.197Z,1.90
2018-11-02T14:56:14.445Z,1.87
2018-11-02T14:58:43.617Z,2.33
2018-11-02T15:01:12.720Z,1.60
2018-11-02T15:03:41.827Z,1.83
2018-11-02T15:06:10.925Z,1.80
2018-11-02T15:08:40.035Z,1.87
2018-11-02T15:11:09.207Z,2.10
2018-11-02T15:13:38.513Z,1.80
2018-11-02T15:16:07.871Z,1.70
2018-11-02T15:18:36.995Z,2.30
2018-11-02T15:21:06.582Z,1.43
2018-11-02T15:23:35.692Z,1.87
2018-11-02T15:26:04.839Z,2.20
2018-11-02T15:28:33.955Z,2.10
2018-11-02T15:31:03.106Z,2.10
2018-11-02T15:33:32.224Z,1.87
2018-11-02T15:36:01.335Z,1.80
2018-11-02T15:38:30.452Z,2.80
2018-11-02T15:40:59.586Z,2.17
2018-11-02T15:43:28.681Z,2.47
2018-11-02T15:45:57.794Z,1.90
2018-11-02T15:48:26.925Z,2.33
2018-11-02T15:50:56.021Z,2.20
2018-11-02T15:53:25.245Z,2.10
2018-11-02T15:55:54.301Z,2.17
2018-11-02T15:58:23.449Z,2.10
2018-11-02T16:00:52.553Z,2.73
2018-11-02T16:03:21.701Z,2.60
2018-11-02T16:05:50.830Z,2.93
2018-11-02T16:08:19.944Z,2.30
2018-11-02T16:10:49.163Z,2.10
2018-11-02T16:13:18.288Z,2.63
2018-11-02T16:15:47.456Z,2.00
2018-11-02T16:18:16.580Z,2.00
2018-11-02T16:20:45.704Z,3.33
2018-11-02T16:23:14.844Z,2.33
2018-11-02T16:25:44.089Z,3.00
2018-11-02T16:28:13.246Z,3.17
2018-11-02T16:30:42.400Z,2.70
2018-11-02T16:33:11.620Z,4.00
2018-11-02T16:35:40.744Z,3.30
2018-11-02T16:38:09.888Z,3.60
2018-11-02T16:40:39.032Z,3.80
2018-11-02T16:43:08.145Z,4.80
2018-11-02T16:45:37.327Z,4.00
2018-11-02T16:48:06.766Z,5.20
2018-11-02T16:50:35.975Z,4.07
2018-11-02T16:53:05.028Z,4.40
2018-11-02T16:55:34.219Z,4.57
2018-11-02T16:58:03.382Z,4.90
2018-11-02T17:00:32.396Z,3.90
2018-11-02T17:03:01.499Z,4.20
2018-11-02T17:05:30.647Z,3.63
2018-11-02T17:07:59.738Z,3.93
2018-11-02T17:10:28.877Z,3.70
2018-11-02T17:12:57.956Z,4.70
2018-11-02T17:15:27.071Z,5.30
2018-11-02T17:17:56.244Z,4.50
2018-11-02T17:20:25.359Z,4.30
2018-11-02T17:22:54.526Z,4.20
2018-11-02T17:25:23.720Z,4.20
2018-11-02T17:27:52.826Z,4.23
2018-11-02T17:30:21.952Z,11.13
2018-11-02T17:32:51.084Z,10.67
2018-11-02T17:35:20.217Z,13.77
2018-11-02T17:37:49.362Z,14.40
2018-11-02T17:40:18.502Z,13.13
2018-11-02T17:42:47.659Z,16.53
2018-11-02T17:45:16.783Z,19.20
2018-11-02T17:47:45.964Z,17.37
2018-11-02T17:50:15.585Z,11.80
2018-11-02T17:52:44.860Z,13.43
2018-11-02T17:55:14.868Z,13.80
2018-11-02T17:57:43.976Z,12.00
2018-11-02T18:00:13.954Z,13.00
2018-11-02T18:02:43.217Z,13.10
2018-11-02T18:05:12.652Z,12.30
2018-11-02T18:07:41.721Z,11.80
2018-11-02T18:10:12.453Z,9.30
2018-11-02T18:12:41.611Z,9.40
2018-11-02T18:15:11.771Z,13.77
2018-11-02T18:17:40.881Z,14.27
2018-11-02T18:20:12.798Z,12.17
2018-11-02T18:22:41.975Z,12.67
2018-11-02T18:25:11.436Z,12.30
2018-11-02T18:27:41.152Z,9.10
2018-11-02T18:30:11.199Z,8.83
2018-11-02T18:32:40.343Z,9.27
2018-11-02T18:35:09.986Z,9.47
2018-11-02T18:37:39.191Z,9.43
2018-11-02T18:40:10.506Z,9.57
2018-11-02T18:42:39.653Z,9.97
2018-11-02T18:45:11.178Z,9.97
2018-11-02T18:47:49.841Z,10.00
2018-11-02T18:50:21.324Z,9.57
2018-11-02T18:52:50.931Z,8.77
2018-11-02T18:55:20.558Z,12.20
2018-11-02T18:57:49.716Z,10.90
2018-11-02T19:00:19.042Z,7.93
2018-11-02T19:02:48.143Z,8.90
2018-11-02T19:05:18.382Z,9.40
2018-11-02T19:07:47.492Z,7.80
2018-11-02T19:10:16.625Z,8.70
2018-11-02T19:12:45.792Z,9.10
2018-11-02T19:15:18.241Z,8.67
2018-11-02T19:17:47.387Z,7.40
2018-11-02T19:20:16.829Z,13.57
2018-11-02T19:22:45.918Z,8.53
2018-11-02T19:25:16.043Z,7.70
2018-11-02T19:27:46.025Z,17.20
2018-11-02T19:30:15.759Z,10.77
2018-11-02T19:32:44.969Z,13.80
2018-11-02T19:35:14.847Z,12.43
2018-11-02T19:37:44.268Z,11.70
2018-11-02T19:40:14.609Z,9.30
2018-11-02T19:42:43.946Z,8.80
2018-11-02T19:45:13.517Z,8.60
2018-11-02T19:47:48.783Z,9.10
2018-11-02T19:50:18.767Z,7.97
2018-11-02T19:52:47.899Z,7.50
2018-11-02T19:55:17.102Z,8.13
2018-11-02T19:57:46.199Z,7.00
2018-11-02T20:00:16.474Z,5.43
2018-11-02T20:02:45.637Z,6.80
2018-11-02T20:05:16.800Z,6.80
2018-11-02T20:07:45.945Z,6.70
2018-11-02T20:10:16.052Z,7.67
2018-11-02T20:12:45.659Z,7.03
2018-11-02T20:15:15.462Z,6.63
2018-11-02T20:17:44.660Z,7.20
2018-11-02T20:20:14.907Z,8.07
2018-11-02T20:22:44.091Z,6.73
2018-11-02T20:25:14.623Z,9.00
2018-11-02T20:27:43.908Z,8.43
2018-11-02T20:30:17.198Z,7.60
2018-11-02T20:32:46.493Z,8.40
2018-11-02T20:35:15.928Z,7.73
2018-11-02T20:37:45.111Z,8.63
2018-11-02T20:40:16.869Z,11.90
2018-11-02T20:42:46.383Z,12.03
2018-11-02T20:45:15.966Z,11.50
2018-11-02T20:47:52.263Z,11.17
2018-11-02T20:50:21.402Z,10.20
2018-11-02T20:52:51.065Z,9.70
2018-11-02T20:55:20.214Z,10.10
2018-11-02T20:57:49.472Z,11.83
2018-11-02T21:00:22.955Z,11.23
2018-11-02T21:02:52.312Z,14.17
2018-11-02T21:05:22.048Z,12.43
2018-11-02T21:07:51.720Z,14.70
2018-11-02T21:10:21.480Z,13.07
2018-11-02T21:12:50.780Z,13.70
2018-11-02T21:15:23.151Z,13.97
2018-11-02T21:17:52.625Z,14.73
2018-11-02T21:20:22.993Z,14.00
2018-11-02T21:22:52.117Z,14.70
2018-11-02T21:25:21.296Z,16.07
2018-11-02T21:27:50.450Z,13.90
2018-11-02T21:30:22.862Z,14.23
2018-11-02T21:32:52.640Z,15.43
2018-11-02T21:35:22.688Z,15.33
2018-11-02T21:37:52.102Z,14.67
2018-11-02T21:40:22.506Z,13.47
2018-11-02T21:42:51.658Z,14.60
2018-11-02T21:45:21.802Z,14.57
2018-11-02T21:47:50.988Z,15.67
2018-11-02T21:50:20.294Z,17.90
2018-11-02T21:52:49.393Z,17.43
2018-11-02T21:55:18.523Z,14.43
2018-11-02T21:57:47.728Z,15.60
2018-11-02T22:00:18.293Z,16.47
2018-11-02T22:02:47.860Z,15.20
2018-11-02T22:05:17.011Z,17.10
2018-11-02T22:07:47.576Z,16.00
2018-11-02T22:10:17.183Z,16.70
2018-11-02T22:12:46.326Z,15.60
2018-11-02T22:15:15.503Z,16.10
2018-11-02T22:17:44.680Z,19.33
2018-11-02T22:20:14.943Z,16.97
2018-11-02T22:22:44.086Z,17.63
2018-11-02T22:25:14.007Z,18.70
2018-11-02T22:27:43.154Z,17.43
2018-11-02T22:30:16.092Z,21.27
2018-11-02T22:32:45.212Z,20.20
2018-11-02T22:35:15.107Z,20.23
2018-11-02T22:37:44.711Z,21.50
2018-11-02T22:40:14.545Z,18.50
2018-11-02T22:42:44.214Z,20.03
2018-11-02T22:45:14.559Z,20.80
2018-11-02T22:47:49.102Z,18.70
2018-11-02T22:50:18.290Z,20.73
2018-11-02T22:52:47.448Z,21.20
2018-11-02T22:55:16.575Z,21.23
2018-11-02T22:57:45.823Z,20.80
2018-11-02T23:00:17.260Z,21.03
2018-11-02T23:02:47.178Z,22.30
2018-11-02T23:05:16.305Z,24.37
2018-11-02T23:07:45.716Z,24.03
2018-11-02T23:10:14.882Z,23.47
2018-11-02T23:12:44.049Z,27.57
2018-11-02T23:15:13.623Z,25.70
2018-11-02T23:17:42.796Z,25.13
2018-11-02T23:20:13.768Z,26.00
2018-11-02T23:22:43.081Z,24.13
2018-11-02T23:25:12.743Z,22.63
2018-11-02T23:27:43.290Z,24.43
2018-11-02T23:30:12.715Z,25.40
2018-11-02T23:32:41.893Z,22.10
2018-11-02T23:35:11.048Z,23.13
2018-11-02T23:37:40.195Z,24.43
2018-11-02T23:40:10.540Z,25.63
2018-11-02T23:42:39.729Z,27.13
2018-11-02T23:45:10.163Z,24.13
2018-11-02T23:47:39.549Z,24.80
2018-11-02T23:50:10.408Z,22.23
2018-11-02T23:52:39.575Z,21.67
2018-11-02T23:55:09.004Z,22.07
2018-11-02T23:57:38.480Z,25.00
